createdAt,value
2023-03-22T00:04:26.413Z,11.75
2023-03-22T00:09:27.834Z,12.98
2023-03-22T00:14:29.221Z,11.43
2023-03-22T00:19:33.893Z,11.63
2023-03-22T00:24:35.380Z,13.20
2023-03-22T00:29:36.914Z,9.50
2023-03-22T00:34:38.336Z,9.13
2023-03-22T00:39:39.730Z,8.98
2023-03-22T00:44:41.540Z,11.77
2023-03-22T00:49:42.965Z,12.82
2023-03-22T00:54:44.348Z,9.27
2023-03-22T00:59:46.401Z,12.40
2023-03-22T01:04:48.230Z,9.63
2023-03-22T01:09:49.864Z,11.90
2023-03-22T01:14:51.232Z,16.75
2023-03-22T01:19:52.631Z,11.95
2023-03-22T01:24:54.100Z,10.80
2023-03-22T01:29:55.664Z,14.48
2023-03-22T01:34:57.070Z,15.02
2023-03-22T01:39:58.803Z,11.20
2023-03-22T01:45:15.460Z,8.30
2023-03-22T01:50:17.288Z,13.73
2023-03-22T01:55:22.793Z,11.00
2023-03-22T02:00:24.286Z,11.98
2023-03-22T02:05:26.451Z,16.48
2023-03-22T02:10:28.329Z,14.55
2023-03-22T02:15:32.626Z,17.60
2023-03-22T02:20:42.982Z,12.65
2023-03-22T02:26:10.612Z,12.15
2023-03-22T02:31:12.018Z,19.25
2023-03-22T02:36:32.609Z,13.52
2023-03-22T02:41:42.968Z,14.13
2023-03-22T02:46:53.743Z,14.98
2023-03-22T02:52:17.482Z,14.45
2023-03-22T02:57:37.738Z,11.18
2023-03-22T03:07:41.986Z,15.95
2023-03-22T03:12:43.721Z,13.48
2023-03-22T03:17:45.107Z,12.43
2023-03-22T03:22:46.640Z,16.48
2023-03-22T03:27:52.152Z,14.70
2023-03-22T03:33:03.195Z,13.98
2023-03-22T03:38:18.586Z,13.15
2023-03-22T03:43:20.649Z,16.98
2023-03-22T03:48:23.381Z,18.27
2023-03-22T03:53:25.174Z,16.55
2023-03-22T03:58:26.567Z,16.83
2023-03-22T04:03:28.415Z,18.52
2023-03-22T04:08:29.794Z,17.80
2023-03-22T04:13:31.117Z,18.05
2023-03-22T04:18:32.771Z,14.75
2023-03-22T04:23:34.216Z,14.95
2023-03-22T04:28:35.564Z,18.92
2023-03-22T04:33:39.502Z,20.40
2023-03-22T04:38:40.964Z,19.00
2023-03-22T04:43:42.576Z,17.60
2023-03-22T04:48:44.077Z,18.17
2023-03-22T04:53:45.623Z,19.13
2023-03-22T04:58:47.170Z,19.70
2023-03-22T05:03:48.682Z,23.00
2023-03-22T05:08:50.242Z,21.25
2023-03-22T05:13:52.235Z,22.67
2023-03-22T05:18:54.487Z,24.45
2023-03-22T05:23:56.657Z,23.23
2023-03-22T05:28:58.118Z,26.35
2023-03-22T05:33:59.543Z,23.27
2023-03-22T05:39:01.355Z,24.42
2023-03-22T05:44:02.768Z,22.08
2023-03-22T05:49:04.147Z,20.95
2023-03-22T05:54:07.666Z,23.73
2023-03-22T05:59:09.133Z,24.50
2023-03-22T06:04:10.639Z,23.00
2023-03-22T06:09:17.424Z,23.90
2023-03-22T06:14:19.158Z,26.42
2023-03-22T06:19:20.538Z,24.05
2023-03-22T06:24:22.964Z,22.85
2023-03-22T06:29:24.456Z,20.60
2023-03-22T06:34:26.480Z,20.10
2023-03-22T06:39:28.180Z,19.15
2023-03-22T06:44:29.610Z,20.35
2023-03-22T06:49:31.695Z,18.90
2023-03-22T06:54:33.168Z,19.10
2023-03-22T06:59:34.778Z,16.50
2023-03-22T07:04:36.248Z,16.30
2023-03-22T07:09:39.164Z,16.60
2023-03-22T07:14:40.645Z,18.73
2023-03-22T07:19:42.835Z,17.48
2023-03-22T07:24:56.248Z,14.57
2023-03-22T07:29:59.211Z,18.92
2023-03-22T07:35:00.761Z,15.07
2023-03-22T07:40:04.180Z,15.13
2023-03-22T07:45:06.770Z,17.50
2023-03-22T07:50:09.581Z,15.43
2023-03-22T07:55:12.396Z,15.07
2023-03-22T08:00:14.012Z,16.90
2023-03-22T08:05:15.717Z,13.27
2023-03-22T08:10:17.139Z,15.48
2023-03-22T08:15:18.524Z,20.05
2023-03-22T08:20:19.891Z,15.38
2023-03-22T08:25:21.921Z,12.10
2023-03-22T08:30:23.395Z,16.60
2023-03-22T08:35:24.836Z,16.80
2023-03-22T08:40:26.540Z,13.43
2023-03-22T08:45:28.904Z,11.15
2023-03-22T08:50:30.483Z,13.05
2023-03-22T08:55:35.369Z,15.68
2023-03-22T09:00:48.236Z,14.73
2023-03-22T09:05:50.710Z,13.07
2023-03-22T09:10:52.454Z,10.88
2023-03-22T09:15:54.017Z,14.77
2023-03-22T09:20:55.516Z,17.83
2023-03-22T09:25:59.440Z,12.32
2023-03-22T09:31:08.494Z,14.77
2023-03-22T09:36:11.982Z,13.70
2023-03-22T09:41:19.261Z,11.88
2023-03-22T09:46:27.034Z,12.55
2023-03-22T09:51:45.445Z,14.40
2023-03-22T09:56:49.828Z,12.18
2023-03-22T10:02:01.854Z,17.10
2023-03-22T10:07:09.742Z,11.48
2023-03-22T10:12:26.834Z,11.80
2023-03-22T10:17:30.250Z,13.15
2023-03-22T10:22:34.355Z,11.07
2023-03-22T10:27:36.157Z,9.85
2023-03-22T10:32:56.696Z,16.58
2023-03-22T10:38:00.853Z,13.00
2023-03-22T10:43:21.170Z,15.63
2023-03-22T10:48:25.422Z,16.60
2023-03-22T10:53:38.856Z,14.77
2023-03-22T10:58:40.469Z,14.45
2023-03-22T11:03:43.062Z,15.75
2023-03-22T11:08:45.015Z,15.13
2023-03-22T11:13:52.338Z,14.82
2023-03-22T11:18:54.712Z,14.00
2023-03-22T11:24:01.485Z,17.00
2023-03-22T11:29:10.605Z,14.77
2023-03-22T11:34:16.854Z,16.73
2023-03-22T11:39:21.358Z,12.45
2023-03-22T11:44:23.144Z,15.85
2023-03-22T11:49:27.061Z,14.15
2023-03-22T11:54:34.245Z,13.65
2023-03-22T11:59:39.509Z,15.27
2023-03-22T12:04:41.789Z,15.23
2023-03-22T12:09:59.142Z,17.10
2023-03-22T12:15:24.577Z,14.27
2023-03-22T12:20:35.721Z,14.70
2023-03-22T12:25:38.025Z,12.57
2023-03-22T12:30:43.192Z,14.55
2023-03-22T12:35:46.764Z,16.80
2023-03-22T12:40:48.339Z,13.50
2023-03-22T12:45:53.290Z,13.68
2023-03-22T12:51:00.386Z,13.48
2023-03-22T12:56:02.653Z,13.00
2023-03-22T13:01:22.112Z,16.92
2023-03-22T13:06:33.095Z,13.20
2023-03-22T13:11:34.753Z,15.40
2023-03-22T13:16:47.784Z,14.90
2023-03-22T13:21:50.033Z,13.35
2023-03-22T13:26:53.093Z,13.38
2023-03-22T13:31:58.954Z,13.40
2023-03-22T13:37:03.651Z,13.27
2023-03-22T13:42:25.330Z,15.27
2023-03-22T13:47:37.190Z,14.52
2023-03-22T13:52:41.124Z,15.52
2023-03-22T13:57:47.682Z,12.82
2023-03-22T14:02:50.164Z,13.27
2023-03-22T14:07:56.302Z,13.30
2023-03-22T14:13:16.373Z,13.80
